sensor_id;sensor_type;location;lat;lon;timestamp;temperature;humidity
45685;DHT22;46836;48.388;16.210;2022-08-23T00:02:24;16.70;99.90
45685;DHT22;46836;48.388;16.210;2022-08-23T00:04:52;16.70;99.90
45685;DHT22;46836;48.388;16.210;2022-08-23T00:07:37;16.70;99.90
45685;DHT22;46836;48.388;16.210;2022-08-23T00:10:10;16.60;99.90
45685;DHT22;46836;48.388;16.210;2022-08-23T00:12:38;16.60;99.90
45685;DHT22;46836;48.388;16.210;2022-08-23T00:15:07;16.50;99.90
45685;DHT22;46836;48.388;16.210;2022-08-23T00:17:36;16.60;99.90
45685;DHT22;46836;48.388;16.210;2022-08-23T00:20:05;16.60;99.90
45685;DHT22;46836;48.388;16.210;2022-08-23T00:22:34;16.60;99.90
45685;DHT22;46836;48.388;16.210;2022-08-23T00:25:01;16.60;99.90
45685;DHT22;46836;48.388;16.210;2022-08-23T00:27:29;16.70;99.90
45685;DHT22;46836;48.388;16.210;2022-08-23T00:29:56;16.70;99.90
45685;DHT22;46836;48.388;16.210;2022-08-23T00:32:26;16.70;99.90
45685;DHT22;46836;48.388;16.210;2022-08-23T00:34:54;16.80;99.90
45685;DHT22;46836;48.388;16.210;2022-08-23T00:37:22;16.80;99.90
45685;DHT22;46836;48.388;16.210;2022-08-23T00:39:50;16.80;99.90
45685;DHT22;46836;48.388;16.210;2022-08-23T00:42:53;16.70;99.90
45685;DHT22;46836;48.388;16.210;2022-08-23T00:46:08;16.70;99.90
45685;DHT22;46836;48.388;16.210;2022-08-23T00:49:01;16.80;99.90
45685;DHT22;46836;48.388;16.210;2022-08-23T00:51:34;16.80;99.90
45685;DHT22;46836;48.388;16.210;2022-08-23T00:54:20;16.90;99.90
45685;DHT22;46836;48.388;16.210;2022-08-23T00:56:48;16.80;99.90
45685;DHT22;46836;48.388;16.210;2022-08-23T00:59:16;16.70;99.90
45685;DHT22;46836;48.388;16.210;2022-08-23T01:01:44;16.70;99.90
45685;DHT22;46836;48.388;16.210;2022-08-23T01:04:12;16.80;99.90
45685;DHT22;46836;48.388;16.210;2022-08-23T01:09:35;16.80;99.90
45685;DHT22;46836;48.388;16.210;2022-08-23T01:12:27;16.80;99.90
45685;DHT22;46836;48.388;16.210;2022-08-23T01:15:28;16.70;99.90
45685;DHT22;46836;48.388;16.210;2022-08-23T01:18:08;16.80;99.90
45685;DHT22;46836;48.388;16.210;2022-08-23T01:20:44;16.70;99.90
45685;DHT22;46836;48.388;16.210;2022-08-23T01:23:32;16.70;99.90
45685;DHT22;46836;48.388;16.210;2022-08-23T01:26:03;16.70;99.90
45685;DHT22;46836;48.388;16.210;2022-08-23T01:28:30;16.70;99.90
45685;DHT22;46836;48.388;16.210;2022-08-23T01:30:58;16.70;99.90
45685;DHT22;46836;48.388;16.210;2022-08-23T01:33:26;16.60;99.90
45685;DHT22;46836;48.388;16.210;2022-08-23T01:35:55;16.70;99.90
45685;DHT22;46836;48.388;16.210;2022-08-23T01:38:24;16.70;99.90
45685;DHT22;46836;48.388;16.210;2022-08-23T01:40:55;16.60;99.90
45685;DHT22;46836;48.388;16.210;2022-08-23T01:43:23;16.60;99.90
45685;DHT22;46836;48.388;16.210;2022-08-23T01:45:51;16.60;99.90
45685;DHT22;46836;48.388;16.210;2022-08-23T01:48:19;16.60;99.90
45685;DHT22;46836;48.388;16.210;2022-08-23T01:50:47;16.70;99.90
45685;DHT22;46836;48.388;16.210;2022-08-23T01:53:14;16.80;99.90
45685;DHT22;46836;48.388;16.210;2022-08-23T01:55:42;16.70;99.90
45685;DHT22;46836;48.388;16.210;2022-08-23T01:58:09;16.80;99.90
45685;DHT22;46836;48.388;16.210;2022-08-23T02:00:40;16.80;99.90
45685;DHT22;46836;48.388;16.210;2022-08-23T02:03:08;16.80;99.90
45685;DHT22;46836;48.388;16.210;2022-08-23T02:05:39;16.80;99.90
45685;DHT22;46836;48.388;16.210;2022-08-23T02:08:07;16.70;99.90
45685;DHT22;46836;48.388;16.210;2022-08-23T02:10:53;16.70;99.90
45685;DHT22;46836;48.388;16.210;2022-08-23T02:13:20;16.60;99.90
45685;DHT22;46836;48.388;16.210;2022-08-23T02:15:49;16.50;99.90
45685;DHT22;46836;48.388;16.210;2022-08-23T02:18:21;16.40;99.90
45685;DHT22;46836;48.388;16.210;2022-08-23T02:20:50;16.40;99.90
45685;DHT22;46836;48.388;16.210;2022-08-23T02:23:20;16.40;99.90
45685;DHT22;46836;48.388;16.210;2022-08-23T02:25:51;16.40;99.90
45685;DHT22;46836;48.388;16.210;2022-08-23T02:28:19;16.40;99.90
45685;DHT22;46836;48.388;16.210;2022-08-23T02:30:48;16.30;99.90
45685;DHT22;46836;48.388;16.210;2022-08-23T02:33:18;16.30;99.90
45685;DHT22;46836;48.388;16.210;2022-08-23T02:35:46;16.30;99.90
45685;DHT22;46836;48.388;16.210;2022-08-23T02:38:16;16.40;99.90
45685;DHT22;46836;48.388;16.210;2022-08-23T02:40:46;16.40;99.90
45685;DHT22;46836;48.388;16.210;2022-08-23T02:43:28;16.30;99.90
45685;DHT22;46836;48.388;16.210;2022-08-23T02:46:09;16.40;99.90
45685;DHT22;46836;48.388;16.210;2022-08-23T02:48:38;16.40;99.90
45685;DHT22;46836;48.388;16.210;2022-08-23T02:51:07;16.50;99.90
45685;DHT22;46836;48.388;16.210;2022-08-23T02:53:36;16.40;99.90
45685;DHT22;46836;48.388;16.210;2022-08-23T02:56:04;16.50;99.90
45685;DHT22;46836;48.388;16.210;2022-08-23T02:58:47;16.50;99.90
45685;DHT22;46836;48.388;16.210;2022-08-23T03:01:23;16.50;99.90
45685;DHT22;46836;48.388;16.210;2022-08-23T03:03:51;16.40;99.90
45685;DHT22;46836;48.388;16.210;2022-08-23T03:06:18;16.40;99.90
45685;DHT22;46836;48.388;16.210;2022-08-23T03:08:52;16.40;99.90
45685;DHT22;46836;48.388;16.210;2022-08-23T03:11:22;16.40;99.90
45685;DHT22;46836;48.388;16.210;2022-08-23T03:13:50;16.50;99.90
45685;DHT22;46836;48.388;16.210;2022-08-23T03:16:19;16.50;99.90
45685;DHT22;46836;48.388;16.210;2022-08-23T03:18:46;16.50;99.90
45685;DHT22;46836;48.388;16.210;2022-08-23T03:21:14;16.50;99.90
45685;DHT22;46836;48.388;16.210;2022-08-23T03:23:42;16.60;99.90
45685;DHT22;46836;48.388;16.210;2022-08-23T03:26:11;16.50;99.90
45685;DHT22;46836;48.388;16.210;2022-08-23T03:28:40;16.50;99.90
45685;DHT22;46836;48.388;16.210;2022-08-23T03:31:08;16.50;99.90
45685;DHT22;46836;48.388;16.210;2022-08-23T03:33:36;16.50;99.90
45685;DHT22;46836;48.388;16.210;2022-08-23T03:36:09;16.60;99.90
45685;DHT22;46836;48.388;16.210;2022-08-23T03:38:36;16.70;99.90
45685;DHT22;46836;48.388;16.210;2022-08-23T03:41:06;16.60;99.90
45685;DHT22;46836;48.388;16.210;2022-08-23T03:43:35;16.70;99.90
45685;DHT22;46836;48.388;16.210;2022-08-23T03:46:03;16.70;99.90
45685;DHT22;46836;48.388;16.210;2022-08-23T03:48:30;16.70;99.90
45685;DHT22;46836;48.388;16.210;2022-08-23T03:50:58;16.70;99.90
45685;DHT22;46836;48.388;16.210;2022-08-23T03:53:26;16.70;99.90
45685;DHT22;46836;48.388;16.210;2022-08-23T03:55:54;16.70;99.90
45685;DHT22;46836;48.388;16.210;2022-08-23T03:58:22;16.60;99.90
45685;DHT22;46836;48.388;16.210;2022-08-23T04:00:50;16.60;99.90
45685;DHT22;46836;48.388;16.210;2022-08-23T04:03:17;16.60;99.90
45685;DHT22;46836;48.388;16.210;2022-08-23T04:05:44;16.60;99.90
45685;DHT22;46836;48.388;16.210;2022-08-23T04:08:13;16.60;99.90
45685;DHT22;46836;48.388;16.210;2022-08-23T04:10:45;16.60;99.90
45685;DHT22;46836;48.388;16.210;2022-08-23T04:13:12;16.50;99.90
45685;DHT22;46836;48.388;16.210;2022-08-23T04:15:39;16.60;99.90
45685;DHT22;46836;48.388;16.210;2022-08-23T04:18:09;16.60;99.90
45685;DHT22;46836;48.388;16.210;2022-08-23T04:20:36;16.60;99.90
45685;DHT22;46836;48.388;16.210;2022-08-23T04:23:03;16.60;99.90
45685;DHT22;46836;48.388;16.210;2022-08-23T04:25:31;16.70;99.90
45685;DHT22;46836;48.388;16.210;2022-08-23T04:28:02;16.60;99.90
45685;DHT22;46836;48.388;16.210;2022-08-23T04:30:31;16.60;99.90
45685;DHT22;46836;48.388;16.210;2022-08-23T04:32:58;16.70;99.90
45685;DHT22;46836;48.388;16.210;2022-08-23T04:35:27;16.60;99.90
45685;DHT22;46836;48.388;16.210;2022-08-23T04:37:55;16.70;99.90
45685;DHT22;46836;48.388;16.210;2022-08-23T04:40:22;16.70;99.90
45685;DHT22;46836;48.388;16.210;2022-08-23T04:43:08;16.80;99.90
45685;DHT22;46836;48.388;16.210;2022-08-23T04:45:39;16.70;99.90
45685;DHT22;46836;48.388;16.210;2022-08-23T04:48:07;16.70;99.90
45685;DHT22;46836;48.388;16.210;2022-08-23T04:50:38;16.70;99.90
45685;DHT22;46836;48.388;16.210;2022-08-23T04:53:06;16.70;99.90
45685;DHT22;46836;48.388;16.210;2022-08-23T04:55:34;16.80;99.90
45685;DHT22;46836;48.388;16.210;2022-08-23T04:58:03;16.80;99.90
45685;DHT22;46836;48.388;16.210;2022-08-23T05:00:31;16.80;99.90
45685;DHT22;46836;48.388;16.210;2022-08-23T05:02:58;16.70;99.90
45685;DHT22;46836;48.388;16.210;2022-08-23T05:05:26;16.70;99.90
45685;DHT22;46836;48.388;16.210;2022-08-23T05:07:53;16.70;99.90
45685;DHT22;46836;48.388;16.210;2022-08-23T05:10:21;16.80;99.90
45685;DHT22;46836;48.388;16.210;2022-08-23T05:12:48;16.70;99.90
45685;DHT22;46836;48.388;16.210;2022-08-23T05:15:16;16.70;99.90
45685;DHT22;46836;48.388;16.210;2022-08-23T05:17:43;16.80;99.90
45685;DHT22;46836;48.388;16.210;2022-08-23T05:20:10;16.80;99.90
45685;DHT22;46836;48.388;16.210;2022-08-23T05:22:40;16.80;99.90
45685;DHT22;46836;48.388;16.210;2022-08-23T05:25:07;16.70;99.90
45685;DHT22;46836;48.388;16.210;2022-08-23T05:27:36;16.80;99.90
45685;DHT22;46836;48.388;16.210;2022-08-23T05:30:05;16.90;99.90
45685;DHT22;46836;48.388;16.210;2022-08-23T05:32:33;16.80;99.90
45685;DHT22;46836;48.388;16.210;2022-08-23T05:35:00;16.80;99.90
45685;DHT22;46836;48.388;16.210;2022-08-23T05:37:27;16.80;99.90
45685;DHT22;46836;48.388;16.210;2022-08-23T05:39:55;16.80;99.90
45685;DHT22;46836;48.388;16.210;2022-08-23T05:42:22;16.80;99.90
45685;DHT22;46836;48.388;16.210;2022-08-23T05:44:49;16.90;99.90
45685;DHT22;46836;48.388;16.210;2022-08-23T05:47:16;16.90;99.90
45685;DHT22;46836;48.388;16.210;2022-08-23T05:49:50;16.90;99.90
45685;DHT22;46836;48.388;16.210;2022-08-23T05:52:17;16.90;99.90
45685;DHT22;46836;48.388;16.210;2022-08-23T05:54:45;17.00;99.90
45685;DHT22;46836;48.388;16.210;2022-08-23T05:57:12;17.00;99.90
45685;DHT22;46836;48.388;16.210;2022-08-23T05:59:39;17.00;99.90
45685;DHT22;46836;48.388;16.210;2022-08-23T06:02:08;17.00;99.90
45685;DHT22;46836;48.388;16.210;2022-08-23T06:04:35;17.00;99.90
45685;DHT22;46836;48.388;16.210;2022-08-23T06:07:03;17.00;99.90
45685;DHT22;46836;48.388;16.210;2022-08-23T06:09:32;17.00;99.90
45685;DHT22;46836;48.388;16.210;2022-08-23T06:11:59;17.00;99.90
45685;DHT22;46836;48.388;16.210;2022-08-23T06:14:27;17.00;99.90
45685;DHT22;46836;48.388;16.210;2022-08-23T06:16:54;17.10;99.90
45685;DHT22;46836;48.388;16.210;2022-08-23T06:19:22;17.00;99.90
45685;DHT22;46836;48.388;16.210;2022-08-23T06:21:50;17.00;99.90
45685;DHT22;46836;48.388;16.210;2022-08-23T06:24:18;17.00;99.90
45685;DHT22;46836;48.388;16.210;2022-08-23T06:26:46;17.10;99.90
45685;DHT22;46836;48.388;16.210;2022-08-23T06:29:16;17.20;99.90
45685;DHT22;46836;48.388;16.210;2022-08-23T06:31:46;17.20;99.90
45685;DHT22;46836;48.388;16.210;2022-08-23T06:34:22;17.20;99.90
45685;DHT22;46836;48.388;16.210;2022-08-23T06:36:53;17.20;99.90
45685;DHT22;46836;48.388;16.210;2022-08-23T06:39:23;17.20;99.90
45685;DHT22;46836;48.388;16.210;2022-08-23T06:41:52;17.30;99.90
45685;DHT22;46836;48.388;16.210;2022-08-23T06:44:19;17.30;99.90
45685;DHT22;46836;48.388;16.210;2022-08-23T06:46:47;17.30;99.90
45685;DHT22;46836;48.388;16.210;2022-08-23T06:49:15;17.30;99.90
45685;DHT22;46836;48.388;16.210;2022-08-23T06:51:45;17.30;99.90
45685;DHT22;46836;48.388;16.210;2022-08-23T06:54:15;17.30;99.90
45685;DHT22;46836;48.388;16.210;2022-08-23T06:56:44;17.30;99.90
45685;DHT22;46836;48.388;16.210;2022-08-23T06:59:11;17.40;99.90
45685;DHT22;46836;48.388;16.210;2022-08-23T07:04:26;17.40;99.90
45685;DHT22;46836;48.388;16.210;2022-08-23T07:06:54;17.30;99.90
45685;DHT22;46836;48.388;16.210;2022-08-23T07:09:22;17.30;99.90
45685;DHT22;46836;48.388;16.210;2022-08-23T07:11:49;17.30;99.90
45685;DHT22;46836;48.388;16.210;2022-08-23T07:14:19;17.30;99.90
45685;DHT22;46836;48.388;16.210;2022-08-23T07:16:49;17.30;99.90
45685;DHT22;46836;48.388;16.210;2022-08-23T07:19:19;17.30;99.90
45685;DHT22;46836;48.388;16.210;2022-08-23T07:21:47;17.30;99.90
45685;DHT22;46836;48.388;16.210;2022-08-23T07:24:16;17.30;99.90
45685;DHT22;46836;48.388;16.210;2022-08-23T07:26:46;17.40;99.90
45685;DHT22;46836;48.388;16.210;2022-08-23T07:29:14;17.40;99.90
45685;DHT22;46836;48.388;16.210;2022-08-23T07:31:45;17.40;99.90
45685;DHT22;46836;48.388;16.210;2022-08-23T07:34:13;17.40;99.90
45685;DHT22;46836;48.388;16.210;2022-08-23T07:36:44;17.40;99.90
45685;DHT22;46836;48.388;16.210;2022-08-23T07:39:13;17.40;99.90
45685;DHT22;46836;48.388;16.210;2022-08-23T07:41:41;17.40;99.90
45685;DHT22;46836;48.388;16.210;2022-08-23T07:44:10;17.50;99.90
45685;DHT22;46836;48.388;16.210;2022-08-23T07:46:40;17.50;99.90
45685;DHT22;46836;48.388;16.210;2022-08-23T07:49:10;17.60;99.90
45685;DHT22;46836;48.388;16.210;2022-08-23T07:51:39;17.70;99.90
45685;DHT22;46836;48.388;16.210;2022-08-23T07:54:08;17.70;99.90
45685;DHT22;46836;48.388;16.210;2022-08-23T07:56:36;17.80;99.90
45685;DHT22;46836;48.388;16.210;2022-08-23T07:59:04;17.90;99.90
45685;DHT22;46836;48.388;16.210;2022-08-23T08:01:32;18.00;99.90
45685;DHT22;46836;48.388;16.210;2022-08-23T08:04:02;18.10;99.90
45685;DHT22;46836;48.388;16.210;2022-08-23T08:06:39;18.20;99.90
45685;DHT22;46836;48.388;16.210;2022-08-23T08:09:08;18.30;99.90
45685;DHT22;46836;48.388;16.210;2022-08-23T08:11:36;18.30;99.90
45685;DHT22;46836;48.388;16.210;2022-08-23T08:14:05;18.40;99.90
45685;DHT22;46836;48.388;16.210;2022-08-23T08:16:39;18.40;99.90
45685;DHT22;46836;48.388;16.210;2022-08-23T08:19:09;18.40;99.90
45685;DHT22;46836;48.388;16.210;2022-08-23T08:21:38;18.30;99.90
45685;DHT22;46836;48.388;16.210;2022-08-23T08:24:09;18.30;99.90
45685;DHT22;46836;48.388;16.210;2022-08-23T08:26:40;18.30;99.90
45685;DHT22;46836;48.388;16.210;2022-08-23T08:29:08;18.40;99.90
45685;DHT22;46836;48.388;16.210;2022-08-23T08:31:40;18.30;99.90
45685;DHT22;46836;48.388;16.210;2022-08-23T08:34:08;18.30;99.90
45685;DHT22;46836;48.388;16.210;2022-08-23T08:37:05;18.30;99.90
45685;DHT22;46836;48.388;16.210;2022-08-23T08:39:34;18.40;99.90
45685;DHT22;46836;48.388;16.210;2022-08-23T08:47:15;18.40;99.90
45685;DHT22;46836;48.388;16.210;2022-08-23T08:52:38;18.40;99.90
45685;DHT22;46836;48.388;16.210;2022-08-23T08:55:13;18.30;99.90
45685;DHT22;46836;48.388;16.210;2022-08-23T08:57:46;18.30;99.90
45685;DHT22;46836;48.388;16.210;2022-08-23T09:00:39;18.20;99.90
45685;DHT22;46836;48.388;16.210;2022-08-23T09:03:09;18.10;99.90
45685;DHT22;46836;48.388;16.210;2022-08-23T09:05:38;18.00;99.90
45685;DHT22;46836;48.388;16.210;2022-08-23T09:08:41;18.00;99.90
45685;DHT22;46836;48.388;16.210;2022-08-23T09:16:45;17.90;99.90
45685;DHT22;46836;48.388;16.210;2022-08-23T09:19:16;17.90;99.90
45685;DHT22;46836;48.388;16.210;2022-08-23T09:21:48;17.90;99.90
45685;DHT22;46836;48.388;16.210;2022-08-23T09:24:20;17.90;99.90
45685;DHT22;46836;48.388;16.210;2022-08-23T09:26:47;18.00;99.90
45685;DHT22;46836;48.388;16.210;2022-08-23T09:29:28;18.00;99.90
45685;DHT22;46836;48.388;16.210;2022-08-23T09:31:59;18.00;99.90
45685;DHT22;46836;48.388;16.210;2022-08-23T09:37:18;18.00;99.90
45685;DHT22;46836;48.388;16.210;2022-08-23T09:39:48;18.10;99.90
45685;DHT22;46836;48.388;16.210;2022-08-23T09:42:32;18.00;99.90
45685;DHT22;46836;48.388;16.210;2022-08-23T09:45:31;18.10;99.90
45685;DHT22;46836;48.388;16.210;2022-08-23T09:48:02;18.00;99.90
45685;DHT22;46836;48.388;16.210;2022-08-23T09:50:43;18.00;99.90
45685;DHT22;46836;48.388;16.210;2022-08-23T09:53:15;18.00;99.90
45685;DHT22;46836;48.388;16.210;2022-08-23T09:55:51;18.00;99.90
45685;DHT22;46836;48.388;16.210;2022-08-23T09:58:30;18.00;99.90
45685;DHT22;46836;48.388;16.210;2022-08-23T10:01:18;18.10;99.90
45685;DHT22;46836;48.388;16.210;2022-08-23T10:03:46;18.10;99.90
45685;DHT22;46836;48.388;16.210;2022-08-23T10:06:29;18.10;99.90
45685;DHT22;46836;48.388;16.210;2022-08-23T10:08:57;18.20;99.90
45685;DHT22;46836;48.388;16.210;2022-08-23T10:11:45;18.20;99.90
45685;DHT22;46836;48.388;16.210;2022-08-23T10:14:14;18.20;99.90
45685;DHT22;46836;48.388;16.210;2022-08-23T10:20:10;18.10;99.90
45685;DHT22;46836;48.388;16.210;2022-08-23T10:23:02;18.10;99.90
45685;DHT22;46836;48.388;16.210;2022-08-23T10:25:44;18.10;99.90
45685;DHT22;46836;48.388;16.210;2022-08-23T10:31:27;18.10;99.90
45685;DHT22;46836;48.388;16.210;2022-08-23T10:37:05;18.20;99.90
45685;DHT22;46836;48.388;16.210;2022-08-23T10:39:46;18.30;99.90
45685;DHT22;46836;48.388;16.210;2022-08-23T10:47:44;18.70;99.90
45685;DHT22;46836;48.388;16.210;2022-08-23T10:50:18;18.80;99.90
45685;DHT22;46836;48.388;16.210;2022-08-23T10:53:11;18.90;99.90
45685;DHT22;46836;48.388;16.210;2022-08-23T10:55:41;19.00;99.90
45685;DHT22;46836;48.388;16.210;2022-08-23T10:58:23;18.90;99.90
45685;DHT22;46836;48.388;16.210;2022-08-23T11:00:55;18.90;99.90
45685;DHT22;46836;48.388;16.210;2022-08-23T11:03:40;18.90;99.90
45685;DHT22;46836;48.388;16.210;2022-08-23T11:09:37;18.90;99.90
45685;DHT22;46836;48.388;16.210;2022-08-23T11:14:56;19.00;99.90
45685;DHT22;46836;48.388;16.210;2022-08-23T11:17:39;19.00;99.90
45685;DHT22;46836;48.388;16.210;2022-08-23T11:20:10;19.00;99.90
45685;DHT22;46836;48.388;16.210;2022-08-23T11:33:50;19.10;99.90
45685;DHT22;46836;48.388;16.210;2022-08-23T11:36:21;19.20;99.90
45685;DHT22;46836;48.388;16.210;2022-08-23T11:41:27;19.20;99.90
45685;DHT22;46836;48.388;16.210;2022-08-23T12:03:28;19.40;99.90
45685;DHT22;46836;48.388;16.210;2022-08-23T12:06:08;19.40;99.90
45685;DHT22;46836;48.388;16.210;2022-08-23T12:11:17;19.60;99.90
45685;DHT22;46836;48.388;16.210;2022-08-23T12:13:49;19.60;99.90
45685;DHT22;46836;48.388;16.210;2022-08-23T12:18:50;19.60;99.90
45685;DHT22;46836;48.388;16.210;2022-08-23T12:24:11;19.50;99.90
45685;DHT22;46836;48.388;16.210;2022-08-23T12:35:22;19.40;99.90
45685;DHT22;46836;48.388;16.210;2022-08-23T12:38:03;19.40;99.90
45685;DHT22;46836;48.388;16.210;2022-08-23T12:40:46;19.50;99.90
45685;DHT22;46836;48.388;16.210;2022-08-23T12:43:24;19.60;99.90
45685;DHT22;46836;48.388;16.210;2022-08-23T12:45:58;19.60;99.90
45685;DHT22;46836;48.388;16.210;2022-08-23T12:48:29;19.60;99.90
45685;DHT22;46836;48.388;16.210;2022-08-23T12:51:15;19.60;99.90
45685;DHT22;46836;48.388;16.210;2022-08-23T12:53:43;19.60;99.90
45685;DHT22;46836;48.388;16.210;2022-08-23T12:56:24;19.60;99.90
45685;DHT22;46836;48.388;16.210;2022-08-23T12:59:04;19.60;99.90
45685;DHT22;46836;48.388;16.210;2022-08-23T13:01:34;19.60;99.90
45685;DHT22;46836;48.388;16.210;2022-08-23T13:04:08;19.50;99.90
45685;DHT22;46836;48.388;16.210;2022-08-23T13:06:43;19.50;99.90
45685;DHT22;46836;48.388;16.210;2022-08-23T13:09:37;19.50;99.90
45685;DHT22;46836;48.388;16.210;2022-08-23T13:12:06;19.50;99.90
45685;DHT22;46836;48.388;16.210;2022-08-23T13:14:47;19.60;99.90
45685;DHT22;46836;48.388;16.210;2022-08-23T13:22:31;19.70;99.90
45685;DHT22;46836;48.388;16.210;2022-08-23T13:27:58;19.70;99.90
45685;DHT22;46836;48.388;16.210;2022-08-23T13:30:29;19.80;99.90
45685;DHT22;46836;48.388;16.210;2022-08-23T13:36:06;19.80;99.90
45685;DHT22;46836;48.388;16.210;2022-08-23T13:38:40;19.80;99.90
45685;DHT22;46836;48.388;16.210;2022-08-23T13:41:10;19.80;99.90
45685;DHT22;46836;48.388;16.210;2022-08-23T13:46:26;19.90;99.90
45685;DHT22;46836;48.388;16.210;2022-08-23T13:48:58;19.80;99.90
45685;DHT22;46836;48.388;16.210;2022-08-23T13:53:57;19.70;99.90
45685;DHT22;46836;48.388;16.210;2022-08-23T13:56:27;19.80;99.90
45685;DHT22;46836;48.388;16.210;2022-08-23T13:58:59;19.70;99.90
45685;DHT22;46836;48.388;16.210;2022-08-23T14:01:27;19.70;99.90
45685;DHT22;46836;48.388;16.210;2022-08-23T14:03:55;19.70;99.90
45685;DHT22;46836;48.388;16.210;2022-08-23T14:06:22;19.70;99.90
45685;DHT22;46836;48.388;16.210;2022-08-23T14:08:51;19.70;99.90
45685;DHT22;46836;48.388;16.210;2022-08-23T14:11:18;19.80;99.90
45685;DHT22;46836;48.388;16.210;2022-08-23T14:13:46;19.80;99.90
45685;DHT22;46836;48.388;16.210;2022-08-23T14:16:21;19.80;99.90
45685;DHT22;46836;48.388;16.210;2022-08-23T14:19:10;19.80;99.90
45685;DHT22;46836;48.388;16.210;2022-08-23T14:21:42;19.80;99.90
45685;DHT22;46836;48.388;16.210;2022-08-23T14:24:09;19.80;99.90
45685;DHT22;46836;48.388;16.210;2022-08-23T14:26:36;19.80;99.90
45685;DHT22;46836;48.388;16.210;2022-08-23T14:29:19;19.80;99.90
45685;DHT22;46836;48.388;16.210;2022-08-23T14:31:51;19.80;99.90
45685;DHT22;46836;48.388;16.210;2022-08-23T14:34:19;19.80;99.90
45685;DHT22;46836;48.388;16.210;2022-08-23T14:36:47;19.80;99.90
45685;DHT22;46836;48.388;16.210;2022-08-23T14:39:35;19.80;99.90
45685;DHT22;46836;48.388;16.210;2022-08-23T14:42:03;19.80;99.90
45685;DHT22;46836;48.388;16.210;2022-08-23T14:44:31;19.70;99.90
45685;DHT22;46836;48.388;16.210;2022-08-23T14:47:03;19.70;99.90
45685;DHT22;46836;48.388;16.210;2022-08-23T14:49:30;19.70;99.90
45685;DHT22;46836;48.388;16.210;2022-08-23T14:51:58;19.70;99.90
45685;DHT22;46836;48.388;16.210;2022-08-23T14:54:25;19.70;99.90
45685;DHT22;46836;48.388;16.210;2022-08-23T14:56:52;19.70;99.90
45685;DHT22;46836;48.388;16.210;2022-08-23T14:59:20;19.60;99.90
45685;DHT22;46836;48.388;16.210;2022-08-23T15:01:48;19.60;99.90
45685;DHT22;46836;48.388;16.210;2022-08-23T15:04:21;19.70;99.90
45685;DHT22;46836;48.388;16.210;2022-08-23T15:06:50;19.70;99.90
45685;DHT22;46836;48.388;16.210;2022-08-23T15:09:37;19.70;99.90
45685;DHT22;46836;48.388;16.210;2022-08-23T15:12:04;19.80;99.90
45685;DHT22;46836;48.388;16.210;2022-08-23T15:14:51;19.80;99.90
45685;DHT22;46836;48.388;16.210;2022-08-23T15:17:19;19.80;99.90
45685;DHT22;46836;48.388;16.210;2022-08-23T15:19:46;19.80;99.90
45685;DHT22;46836;48.388;16.210;2022-08-23T15:22:13;19.80;99.90
45685;DHT22;46836;48.388;16.210;2022-08-23T15:24:48;19.80;99.90
45685;DHT22;46836;48.388;16.210;2022-08-23T15:27:16;19.80;99.90
45685;DHT22;46836;48.388;16.210;2022-08-23T15:29:44;19.80;99.90
45685;DHT22;46836;48.388;16.210;2022-08-23T15:32:11;19.80;99.90
45685;DHT22;46836;48.388;16.210;2022-08-23T15:34:39;19.80;99.90
45685;DHT22;46836;48.388;16.210;2022-08-23T15:37:12;19.80;99.90
45685;DHT22;46836;48.388;16.210;2022-08-23T15:39:40;19.80;99.90
45685;DHT22;46836;48.388;16.210;2022-08-23T15:42:08;19.80;99.90
45685;DHT22;46836;48.388;16.210;2022-08-23T15:44:35;19.80;99.90
45685;DHT22;46836;48.388;16.210;2022-08-23T15:47:04;19.70;99.90
45685;DHT22;46836;48.388;16.210;2022-08-23T15:49:35;19.70;99.90
45685;DHT22;46836;48.388;16.210;2022-08-23T15:52:03;19.60;99.90
45685;DHT22;46836;48.388;16.210;2022-08-23T15:54:30;19.60;99.90
45685;DHT22;46836;48.388;16.210;2022-08-23T15:56:57;19.50;99.90
45685;DHT22;46836;48.388;16.210;2022-08-23T15:59:25;19.50;99.90
45685;DHT22;46836;48.388;16.210;2022-08-23T16:01:52;19.50;99.90
45685;DHT22;46836;48.388;16.210;2022-08-23T16:04:19;19.50;99.90
45685;DHT22;46836;48.388;16.210;2022-08-23T16:06:47;19.40;99.90
45685;DHT22;46836;48.388;16.210;2022-08-23T16:09:19;19.40;99.90
45685;DHT22;46836;48.388;16.210;2022-08-23T16:11:48;19.40;99.90
45685;DHT22;46836;48.388;16.210;2022-08-23T16:14:16;19.40;99.90
45685;DHT22;46836;48.388;16.210;2022-08-23T16:16:43;19.30;99.90
45685;DHT22;46836;48.388;16.210;2022-08-23T16:19:14;19.30;99.90
45685;DHT22;46836;48.388;16.210;2022-08-23T16:21:43;19.30;99.90
45685;DHT22;46836;48.388;16.210;2022-08-23T16:24:10;19.30;99.90
45685;DHT22;46836;48.388;16.210;2022-08-23T16:26:39;19.30;99.90
45685;DHT22;46836;48.388;16.210;2022-08-23T16:29:14;19.30;99.90
45685;DHT22;46836;48.388;16.210;2022-08-23T16:31:43;19.30;99.90
45685;DHT22;46836;48.388;16.210;2022-08-23T16:34:16;19.30;99.90
45685;DHT22;46836;48.388;16.210;2022-08-23T16:36:51;19.30;99.90
45685;DHT22;46836;48.388;16.210;2022-08-23T16:39:20;19.20;99.90
45685;DHT22;46836;48.388;16.210;2022-08-23T16:41:48;19.20;99.90
45685;DHT22;46836;48.388;16.210;2022-08-23T16:44:16;19.20;99.90
45685;DHT22;46836;48.388;16.210;2022-08-23T16:46:43;19.20;99.90
45685;DHT22;46836;48.388;16.210;2022-08-23T16:49:14;19.20;99.90
45685;DHT22;46836;48.388;16.210;2022-08-23T16:51:42;19.10;99.90
45685;DHT22;46836;48.388;16.210;2022-08-23T16:54:10;19.10;99.90
45685;DHT22;46836;48.388;16.210;2022-08-23T16:56:38;19.10;99.90
45685;DHT22;46836;48.388;16.210;2022-08-23T16:59:08;19.00;99.90
45685;DHT22;46836;48.388;16.210;2022-08-23T17:01:53;19.00;99.90
45685;DHT22;46836;48.388;16.210;2022-08-23T17:04:22;19.00;99.90
45685;DHT22;46836;48.388;16.210;2022-08-23T17:06:57;19.00;99.90
45685;DHT22;46836;48.388;16.210;2022-08-23T17:09:26;18.90;99.90
45685;DHT22;46836;48.388;16.210;2022-08-23T17:11:56;18.90;99.90
45685;DHT22;46836;48.388;16.210;2022-08-23T17:14:27;18.90;99.90
45685;DHT22;46836;48.388;16.210;2022-08-23T17:16:54;18.90;99.90
45685;DHT22;46836;48.388;16.210;2022-08-23T17:19:21;18.80;99.90
45685;DHT22;46836;48.388;16.210;2022-08-23T17:21:48;18.80;99.90
45685;DHT22;46836;48.388;16.210;2022-08-23T17:24:15;18.80;99.90
45685;DHT22;46836;48.388;16.210;2022-08-23T17:26:42;18.80;99.90
45685;DHT22;46836;48.388;16.210;2022-08-23T17:29:09;18.80;99.90
45685;DHT22;46836;48.388;16.210;2022-08-23T17:31:38;18.80;99.90